createdAt,value
2022-09-24T00:01:16.528Z,17.87
2022-09-24T00:03:47.967Z,15.13
2022-09-24T00:06:14.401Z,15.67
2022-09-24T00:08:41.832Z,18.10
2022-09-24T00:11:12.060Z,16.43
2022-09-24T00:13:39.938Z,16.30
2022-09-24T00:16:12.222Z,17.33
2022-09-24T00:18:39.025Z,16.37
2022-09-24T00:21:20.280Z,19.50
2022-09-24T00:23:55.109Z,17.67
2022-09-24T00:26:41.064Z,16.57
2022-09-24T00:29:09.187Z,16.40
2022-09-24T00:31:36.031Z,12.83
2022-09-24T00:34:02.959Z,15.67
2022-09-24T00:36:29.417Z,15.83
2022-09-24T00:38:58.308Z,13.57
2022-09-24T00:41:28.647Z,14.90
2022-09-24T00:43:55.142Z,15.13
2022-09-24T00:46:43.036Z,15.93
2022-09-24T00:49:14.913Z,19.03
2022-09-24T00:51:43.943Z,19.87
2022-09-24T00:54:14.802Z,18.97
2022-09-24T00:56:43.285Z,16.30
2022-09-24T00:59:16.878Z,15.23
2022-09-24T01:01:45.091Z,16.63
2022-09-24T01:04:14.585Z,15.33
2022-09-24T01:06:41.309Z,14.17
2022-09-24T01:09:08.645Z,16.90
2022-09-24T01:11:59.313Z,13.70
2022-09-24T01:14:41.186Z,15.53
2022-09-24T01:17:30.658Z,15.93
2022-09-24T01:20:03.701Z,16.77
2022-09-24T01:22:50.238Z,13.57
2022-09-24T01:25:38.729Z,14.90
2022-09-24T01:28:29.828Z,14.27
2022-09-24T01:31:03.686Z,16.33
2022-09-24T01:33:33.756Z,14.33
2022-09-24T01:36:08.235Z,16.27
2022-09-24T01:38:41.724Z,15.93
2022-09-24T01:41:10.595Z,12.47
2022-09-24T01:43:39.167Z,15.50
2022-09-24T01:46:07.002Z,15.50
2022-09-24T01:48:37.225Z,17.23
2022-09-24T01:51:39.528Z,15.53
2022-09-24T01:54:12.215Z,18.13
2022-09-24T01:56:47.343Z,16.40
2022-09-24T01:59:23.765Z,17.70
2022-09-24T02:02:05.234Z,15.93
2022-09-24T02:04:36.570Z,17.53
2022-09-24T02:07:12.223Z,14.67
2022-09-24T02:09:41.782Z,18.63
2022-09-24T02:12:29.732Z,18.00
2022-09-24T02:15:07.323Z,18.13
2022-09-24T02:17:37.740Z,16.37
2022-09-24T02:20:11.333Z,14.83
2022-09-24T02:22:39.837Z,18.73
2022-09-24T02:25:10.366Z,16.73
2022-09-24T02:27:36.801Z,19.67
2022-09-24T02:30:05.428Z,18.97
2022-09-24T02:32:36.525Z,19.63
2022-09-24T02:35:08.073Z,18.30
2022-09-24T02:37:40.903Z,18.30
2022-09-24T02:40:10.238Z,18.77
2022-09-24T02:42:37.795Z,15.53
2022-09-24T02:45:05.429Z,20.97
2022-09-24T02:47:33.180Z,20.47
2022-09-24T02:50:00.223Z,22.13
2022-09-24T02:52:27.325Z,21.77
2022-09-24T02:54:53.671Z,22.47
2022-09-24T02:57:20.106Z,23.57
2022-09-24T02:59:46.707Z,22.83
2022-09-24T03:02:13.584Z,21.37
2022-09-24T03:04:40.116Z,22.33
2022-09-24T03:07:06.642Z,24.87
2022-09-24T03:09:33.024Z,27.57
2022-09-24T03:12:00.850Z,24.33
2022-09-24T03:14:27.839Z,27.50
2022-09-24T03:16:54.237Z,28.10
2022-09-24T03:19:20.623Z,27.27
2022-09-24T03:21:47.271Z,26.60
2022-09-24T03:24:13.638Z,30.67
2022-09-24T03:26:40.154Z,27.07
2022-09-24T03:29:06.534Z,27.87
2022-09-24T03:31:33.049Z,28.23
2022-09-24T03:33:59.554Z,27.47
2022-09-24T03:36:26.946Z,30.80
2022-09-24T03:38:56.312Z,29.03
2022-09-24T03:41:25.622Z,34.00
2022-09-24T03:43:52.203Z,31.53
2022-09-24T03:46:19.255Z,28.60
2022-09-24T03:48:47.248Z,24.10
2022-09-24T03:51:18.518Z,28.23
2022-09-24T03:53:45.773Z,29.73
2022-09-24T03:56:12.886Z,29.73
2022-09-24T03:58:40.081Z,27.23
2022-09-24T04:01:08.265Z,22.33
2022-09-24T04:03:36.217Z,25.60
2022-09-24T04:06:03.889Z,30.43
2022-09-24T04:08:31.598Z,26.37
2022-09-24T04:10:58.574Z,22.33
2022-09-24T04:13:25.047Z,21.83
2022-09-24T04:15:51.620Z,15.00
2022-09-24T04:18:18.742Z,11.30
2022-09-24T04:20:45.424Z,7.57
2022-09-24T04:23:11.980Z,10.40
2022-09-24T04:25:40.422Z,6.13
2022-09-24T04:28:08.055Z,8.07
2022-09-24T04:30:34.993Z,5.90
2022-09-24T04:33:03.051Z,5.70
2022-09-24T04:35:31.750Z,7.97
2022-09-24T04:37:59.561Z,5.37
2022-09-24T04:40:27.029Z,5.00
2022-09-24T04:42:53.841Z,3.97
2022-09-24T04:45:21.188Z,3.57
2022-09-24T04:47:52.551Z,4.43
2022-09-24T04:50:20.548Z,5.23
2022-09-24T04:52:46.993Z,5.00
2022-09-24T04:55:14.100Z,6.77
2022-09-24T04:57:41.313Z,6.63
2022-09-24T05:00:12.851Z,5.43
2022-09-24T05:02:39.327Z,3.70
2022-09-24T05:05:06.459Z,6.40
2022-09-24T05:07:32.909Z,3.20
2022-09-24T05:09:59.519Z,5.27
2022-09-24T05:12:25.910Z,4.97
2022-09-24T05:14:52.370Z,8.03
2022-09-24T05:17:18.952Z,4.70
2022-09-24T05:19:45.371Z,4.77
2022-09-24T05:22:11.850Z,5.73
2022-09-24T05:24:38.224Z,4.90
2022-09-24T05:27:10.736Z,2.47
2022-09-24T05:29:38.062Z,3.70
2022-09-24T05:32:07.150Z,4.97
2022-09-24T05:34:34.152Z,3.40
2022-09-24T05:37:01.334Z,5.50
2022-09-24T05:39:33.506Z,2.70
2022-09-24T05:42:01.007Z,5.87
2022-09-24T05:44:27.361Z,3.23
2022-09-24T05:46:53.866Z,3.30
2022-09-24T05:49:20.462Z,4.83
2022-09-24T05:51:50.539Z,7.40
2022-09-24T05:54:18.494Z,2.13
2022-09-24T05:56:45.694Z,4.50
2022-09-24T05:59:12.439Z,3.70
2022-09-24T06:01:39.316Z,2.77
2022-09-24T06:04:08.788Z,10.37
2022-09-24T06:06:36.350Z,6.57
2022-09-24T06:09:03.176Z,7.13
2022-09-24T06:11:39.777Z,6.03
2022-09-24T06:14:06.799Z,5.60
2022-09-24T06:16:34.525Z,4.17
2022-09-24T06:19:01.430Z,9.63
2022-09-24T06:21:27.946Z,10.27
2022-09-24T06:23:54.503Z,11.73
2022-09-24T06:26:20.957Z,8.27
2022-09-24T06:28:47.370Z,9.47
2022-09-24T06:31:13.881Z,11.03
2022-09-24T06:33:40.931Z,4.80
2022-09-24T06:36:07.673Z,6.13
2022-09-24T06:38:35.294Z,5.30
2022-09-24T06:41:04.684Z,6.50
2022-09-24T06:43:32.373Z,8.97
2022-09-24T06:45:59.605Z,6.70
2022-09-24T06:48:27.195Z,11.77
2022-09-24T06:50:54.728Z,8.13
2022-09-24T06:53:21.156Z,8.07
2022-09-24T06:55:47.853Z,11.63
2022-09-24T06:58:20.827Z,5.93
2022-09-24T07:00:59.257Z,9.13
2022-09-24T07:03:27.638Z,3.33
2022-09-24T07:05:54.187Z,9.57
2022-09-24T07:08:21.450Z,12.43
2022-09-24T07:10:54.731Z,8.30
2022-09-24T07:13:21.767Z,7.93
2022-09-24T07:15:50.202Z,9.17
2022-09-24T07:18:18.548Z,6.50
2022-09-24T07:20:45.373Z,10.20
2022-09-24T07:23:12.247Z,5.80
2022-09-24T07:25:39.125Z,6.57
2022-09-24T07:28:10.122Z,7.47
2022-09-24T07:30:38.607Z,7.03
2022-09-24T07:33:06.093Z,7.47
2022-09-24T07:35:32.525Z,7.77
2022-09-24T07:38:05.037Z,9.40
2022-09-24T07:40:32.397Z,9.17
2022-09-24T07:43:00.062Z,11.80
2022-09-24T07:45:29.647Z,11.30
2022-09-24T07:48:06.029Z,4.80
2022-09-24T07:50:35.289Z,9.47
2022-09-24T07:53:01.711Z,7.27
2022-09-24T07:55:28.073Z,6.97
2022-09-24T07:57:55.952Z,12.27
2022-09-24T08:00:23.811Z,11.27
2022-09-24T08:02:51.890Z,9.30
2022-09-24T08:05:18.302Z,5.63
2022-09-24T08:07:55.227Z,12.03
2022-09-24T08:10:22.665Z,4.47
2022-09-24T08:12:49.101Z,7.47
2022-09-24T08:15:15.737Z,6.93
2022-09-24T08:17:42.670Z,5.63
2022-09-24T08:20:09.629Z,6.50
2022-09-24T08:22:36.106Z,3.37
2022-09-24T08:25:04.294Z,9.87
2022-09-24T08:27:32.859Z,10.97
2022-09-24T08:30:00.618Z,7.90
2022-09-24T08:32:29.439Z,9.13
2022-09-24T08:34:55.905Z,6.33
2022-09-24T08:37:22.667Z,6.70
2022-09-24T08:39:49.141Z,8.77
2022-09-24T08:42:25.528Z,4.67
2022-09-24T08:45:11.314Z,3.97
2022-09-24T08:48:00.499Z,5.13
2022-09-24T08:50:35.985Z,7.50
2022-09-24T08:53:14.151Z,6.63
2022-09-24T08:55:46.034Z,6.93
2022-09-24T08:58:31.846Z,9.53
2022-09-24T09:01:10.122Z,10.10
2022-09-24T09:03:42.788Z,6.30
2022-09-24T09:06:18.343Z,10.70
2022-09-24T09:09:11.846Z,5.97
2022-09-24T09:11:40.982Z,5.60
2022-09-24T09:14:49.000Z,9.70
2022-09-24T09:17:23.904Z,7.97
2022-09-24T09:19:56.618Z,7.27
2022-09-24T09:22:30.967Z,5.17
2022-09-24T09:25:04.431Z,11.57
2022-09-24T09:27:31.454Z,4.50
2022-09-24T09:30:03.107Z,5.97
2022-09-24T09:32:51.482Z,4.27
2022-09-24T09:35:33.647Z,7.17
2022-09-24T09:38:17.670Z,8.90
2022-09-24T09:40:52.716Z,4.13
2022-09-24T09:43:19.855Z,9.47
2022-09-24T09:46:10.914Z,9.83
2022-09-24T09:48:45.837Z,7.37
2022-09-24T09:51:23.318Z,11.03
2022-09-24T09:54:00.555Z,7.57
2022-09-24T09:56:38.550Z,7.73
2022-09-24T09:59:09.051Z,3.73
2022-09-24T10:01:40.596Z,8.60
2022-09-24T10:04:28.868Z,4.90
2022-09-24T10:07:08.276Z,7.40
2022-09-24T10:09:35.434Z,4.50
2022-09-24T10:12:22.513Z,5.63
2022-09-24T10:15:03.643Z,6.30
2022-09-24T10:17:35.401Z,6.10
2022-09-24T10:20:07.400Z,5.03
2022-09-24T10:22:36.725Z,9.40
2022-09-24T10:25:04.367Z,3.00
2022-09-24T10:27:37.605Z,8.67
2022-09-24T10:30:34.219Z,6.67
2022-09-24T10:33:03.290Z,5.73
2022-09-24T10:35:35.795Z,11.50
2022-09-24T10:38:14.867Z,5.47
2022-09-24T10:40:41.351Z,8.57
2022-09-24T10:43:15.513Z,6.63
2022-09-24T10:46:22.676Z,7.30
2022-09-24T10:49:04.393Z,9.50
2022-09-24T10:51:54.330Z,7.13
2022-09-24T10:55:11.565Z,4.60
2022-09-24T10:58:03.999Z,5.20
2022-09-24T11:00:49.118Z,10.13
2022-09-24T11:03:43.490Z,4.57
2022-09-24T11:06:37.846Z,6.13
2022-09-24T11:09:16.829Z,11.63
2022-09-24T11:11:52.270Z,4.30
2022-09-24T11:14:39.962Z,3.17
2022-09-24T11:17:18.174Z,7.07
2022-09-24T11:20:14.389Z,4.27
2022-09-24T11:22:49.827Z,4.50
2022-09-24T11:25:41.960Z,6.87
2022-09-24T11:28:26.665Z,3.20
2022-09-24T11:31:31.576Z,4.63
2022-09-24T11:34:16.003Z,2.20
2022-09-24T11:36:48.365Z,3.13
2022-09-24T11:39:30.900Z,5.20
2022-09-24T11:42:24.269Z,5.10
2022-09-24T11:45:01.531Z,13.63
2022-09-24T11:47:58.011Z,4.67
2022-09-24T11:50:55.079Z,4.20
2022-09-24T11:53:43.559Z,4.33
2022-09-24T11:56:18.101Z,9.27
2022-09-24T11:58:50.086Z,5.17
2022-09-24T12:01:38.435Z,4.90
2022-09-24T12:04:20.712Z,3.27
2022-09-24T12:07:06.542Z,4.00
2022-09-24T12:10:15.630Z,6.80
2022-09-24T12:12:46.261Z,8.47
2022-09-24T12:15:24.289Z,4.10
2022-09-24T12:18:03.542Z,2.30
2022-09-24T12:20:32.422Z,7.37
2022-09-24T12:23:04.520Z,7.03
2022-09-24T12:25:39.888Z,6.70
2022-09-24T12:28:12.559Z,6.30
2022-09-24T12:31:15.444Z,4.87
2022-09-24T12:33:52.259Z,3.10
2022-09-24T12:36:29.957Z,6.80
2022-09-24T12:39:07.041Z,1.50
2022-09-24T12:41:38.086Z,4.80
2022-09-24T12:44:10.472Z,3.53
2022-09-24T12:46:46.697Z,4.60
2022-09-24T12:49:25.521Z,3.03
2022-09-24T12:51:57.393Z,2.60
2022-09-24T12:54:37.038Z,2.43
2022-09-24T12:57:12.239Z,2.87
2022-09-24T12:59:58.945Z,3.90
2022-09-24T13:02:43.080Z,3.10
2022-09-24T13:05:34.467Z,2.03
2022-09-24T13:08:24.838Z,3.30
2022-09-24T13:11:00.643Z,5.90
2022-09-24T13:13:31.043Z,3.97
2022-09-24T13:16:04.178Z,2.10
2022-09-24T13:18:33.516Z,3.90
2022-09-24T13:21:06.024Z,2.30
2022-09-24T13:23:53.572Z,4.60
2022-09-24T13:26:33.810Z,2.07
2022-09-24T13:29:05.698Z,1.83
2022-09-24T13:31:41.014Z,4.13
2022-09-24T13:34:10.268Z,3.30
2022-09-24T13:36:52.279Z,4.13
2022-09-24T13:39:42.429Z,4.17
2022-09-24T13:42:33.681Z,3.93
2022-09-24T13:45:06.262Z,3.20
2022-09-24T13:47:47.636Z,5.63
2022-09-24T13:50:16.991Z,6.27
2022-09-24T13:52:49.858Z,1.13
2022-09-24T13:55:21.528Z,3.93
2022-09-24T13:57:48.199Z,2.30
2022-09-24T14:00:16.784Z,3.47
2022-09-24T14:02:51.537Z,3.03
2022-09-24T14:05:19.466Z,2.93
2022-09-24T14:08:14.030Z,1.93
2022-09-24T14:10:41.078Z,1.77
2022-09-24T14:13:24.929Z,1.53
2022-09-24T14:16:09.102Z,4.13
2022-09-24T14:18:37.146Z,2.67
2022-09-24T14:21:10.339Z,2.50
2022-09-24T14:23:45.166Z,0.87
2022-09-24T14:26:25.413Z,2.00
2022-09-24T14:28:52.216Z,4.33
2022-09-24T14:31:18.738Z,2.90
2022-09-24T14:33:45.418Z,3.63
2022-09-24T14:36:14.152Z,7.80
2022-09-24T14:38:53.860Z,3.73
2022-09-24T14:41:24.904Z,6.03
2022-09-24T14:44:00.119Z,4.53
2022-09-24T14:46:35.885Z,4.03
2022-09-24T14:49:30.516Z,3.77
2022-09-24T14:52:02.404Z,4.43
2022-09-24T14:54:33.644Z,4.37
2022-09-24T14:57:37.478Z,2.97
2022-09-24T15:00:23.225Z,3.90
2022-09-24T15:03:03.886Z,4.57
2022-09-24T15:05:30.907Z,4.97
2022-09-24T15:08:19.710Z,3.23
2022-09-24T15:10:53.982Z,3.97
2022-09-24T15:13:24.378Z,7.83
2022-09-24T15:16:24.007Z,6.57
2022-09-24T15:18:59.033Z,3.60
2022-09-24T15:21:25.699Z,2.67
2022-09-24T15:23:52.059Z,3.73
2022-09-24T15:26:18.493Z,4.07
2022-09-24T15:28:44.891Z,6.80
2022-09-24T15:31:11.783Z,4.87
2022-09-24T15:33:38.329Z,2.87
2022-09-24T15:36:04.875Z,4.97
2022-09-24T15:38:31.700Z,3.10
2022-09-24T15:40:59.301Z,2.53
2022-09-24T15:43:25.930Z,5.13
2022-09-24T15:45:52.427Z,3.27
2022-09-24T15:48:18.946Z,6.17
2022-09-24T15:50:47.280Z,4.27
2022-09-24T15:53:26.128Z,3.13
2022-09-24T15:55:55.392Z,2.30
2022-09-24T15:58:22.792Z,5.53
2022-09-24T16:00:49.953Z,1.23
2022-09-24T16:03:27.271Z,6.93
2022-09-24T16:05:54.403Z,2.13
2022-09-24T16:08:22.824Z,3.33
2022-09-24T16:10:50.224Z,3.60
2022-09-24T16:13:18.040Z,2.43
2022-09-24T16:15:44.970Z,2.70
2022-09-24T16:18:13.694Z,3.43
2022-09-24T16:20:41.001Z,2.23
2022-09-24T16:23:14.051Z,2.60
2022-09-24T16:25:42.325Z,4.30
2022-09-24T16:28:08.789Z,4.07
2022-09-24T16:30:38.653Z,7.17
2022-09-24T16:33:05.338Z,2.30
2022-09-24T16:35:31.842Z,1.87
2022-09-24T16:37:58.248Z,5.97
2022-09-24T16:40:24.764Z,2.17
2022-09-24T16:42:51.429Z,2.87
2022-09-24T16:45:18.104Z,4.20
2022-09-24T16:47:44.476Z,3.47
2022-09-24T16:50:11.110Z,3.53
2022-09-24T16:52:37.532Z,4.30
2022-09-24T16:55:04.235Z,3.80
2022-09-24T16:57:30.654Z,5.57
2022-09-24T16:59:57.066Z,6.90
2022-09-24T17:02:23.516Z,1.80
2022-09-24T17:04:49.975Z,4.73
2022-09-24T17:07:16.346Z,4.30
2022-09-24T17:10:01.423Z,4.10
2022-09-24T17:12:27.861Z,4.67
2022-09-24T17:14:54.304Z,3.37
2022-09-24T17:17:20.796Z,3.97
2022-09-24T17:19:47.190Z,4.97
2022-09-24T17:22:13.575Z,3.20
2022-09-24T17:24:40.202Z,3.73
2022-09-24T17:27:08.033Z,2.60
2022-09-24T17:29:34.610Z,4.40
2022-09-24T17:32:01.153Z,4.37
2022-09-24T17:34:27.744Z,3.77
2022-09-24T17:36:54.133Z,3.90
2022-09-24T17:39:20.765Z,2.67
2022-09-24T17:41:47.211Z,2.97
2022-09-24T17:44:13.718Z,5.20
2022-09-24T17:46:40.379Z,4.83
2022-09-24T17:49:07.019Z,4.33
2022-09-24T17:51:36.321Z,3.23
2022-09-24T17:54:12.918Z,3.47
2022-09-24T17:56:40.340Z,2.87
2022-09-24T17:59:11.158Z,2.33
2022-09-24T18:01:39.665Z,1.80
2022-09-24T18:04:09.922Z,5.23
2022-09-24T18:06:38.238Z,5.73
2022-09-24T18:09:05.618Z,4.07
2022-09-24T18:11:38.349Z,3.00
2022-09-24T18:14:04.789Z,3.83
2022-09-24T18:16:32.882Z,4.73
2022-09-24T18:19:01.449Z,3.77
2022-09-24T18:21:29.333Z,2.30
2022-09-24T18:23:57.579Z,1.47
2022-09-24T18:26:27.123Z,5.47
2022-09-24T18:29:16.895Z,6.33
2022-09-24T18:31:44.017Z,4.43
2022-09-24T18:34:13.133Z,4.63
2022-09-24T18:36:41.227Z,3.17
2022-09-24T18:39:11.512Z,7.60
2022-09-24T18:41:38.001Z,2.63
2022-09-24T18:44:04.919Z,3.30
2022-09-24T18:46:33.118Z,2.80
2022-09-24T18:49:00.736Z,3.47
2022-09-24T18:51:29.095Z,2.90
2022-09-24T18:53:57.953Z,3.07
2022-09-24T18:56:25.281Z,6.27
2022-09-24T18:58:58.504Z,6.37
2022-09-24T19:01:25.427Z,10.73
2022-09-24T19:03:51.986Z,4.77
2022-09-24T19:06:18.609Z,4.57
2022-09-24T19:08:45.153Z,4.20
2022-09-24T19:11:14.013Z,2.50
2022-09-24T19:13:42.846Z,6.17
2022-09-24T19:16:12.543Z,4.23
2022-09-24T19:18:40.392Z,3.13
2022-09-24T19:21:08.837Z,3.90
2022-09-24T19:23:37.357Z,3.47
2022-09-24T19:26:04.536Z,6.93
2022-09-24T19:28:31.057Z,4.10
2022-09-24T19:30:57.625Z,5.10
2022-09-24T19:33:24.158Z,6.13
2022-09-24T19:36:02.076Z,5.33
2022-09-24T19:38:30.591Z,4.43
2022-09-24T19:40:59.005Z,5.03
2022-09-24T19:43:25.606Z,1.43
2022-09-24T19:46:00.408Z,3.63
2022-09-24T19:48:28.394Z,4.20
2022-09-24T19:51:00.201Z,4.33
2022-09-24T19:53:26.994Z,5.73
2022-09-24T19:55:53.427Z,2.03
2022-09-24T19:58:19.831Z,4.40
2022-09-24T20:00:46.268Z,3.00
2022-09-24T20:03:13.421Z,4.17
2022-09-24T20:05:43.253Z,5.53
2022-09-24T20:08:14.641Z,4.00
2022-09-24T20:10:42.196Z,5.27
2022-09-24T20:13:12.975Z,4.83
2022-09-24T20:15:41.265Z,6.67
2022-09-24T20:18:11.661Z,6.30
2022-09-24T20:20:42.168Z,5.77
2022-09-24T20:23:10.689Z,5.73
2022-09-24T20:25:55.936Z,2.83
2022-09-24T20:28:22.493Z,4.03
2022-09-24T20:30:48.915Z,5.40
2022-09-24T20:33:15.360Z,4.53
2022-09-24T20:35:42.276Z,4.00
2022-09-24T20:38:09.428Z,4.43
2022-09-24T20:40:39.065Z,5.20
2022-09-24T20:43:05.529Z,3.47
2022-09-24T20:45:33.156Z,4.33
2022-09-24T20:48:00.544Z,3.50
2022-09-24T20:50:26.954Z,4.40
2022-09-24T20:52:53.415Z,5.40
2022-09-24T20:55:20.511Z,3.23
2022-09-24T20:57:47.059Z,3.10
2022-09-24T21:00:14.965Z,4.60
2022-09-24T21:02:42.133Z,5.80
2022-09-24T21:05:11.512Z,3.33
2022-09-24T21:07:42.627Z,4.07
2022-09-24T21:10:11.821Z,3.10
2022-09-24T21:12:39.174Z,3.70
2022-09-24T21:15:07.167Z,4.07
2022-09-24T21:17:33.775Z,6.40
2022-09-24T21:20:00.660Z,4.63
2022-09-24T21:22:27.153Z,4.17
2022-09-24T21:24:53.594Z,4.93
2022-09-24T21:27:20.025Z,4.63
2022-09-24T21:29:47.484Z,5.27
2022-09-24T21:32:17.354Z,2.60
2022-09-24T21:34:44.881Z,5.00
2022-09-24T21:37:13.447Z,3.07
2022-09-24T21:39:40.677Z,2.67
2022-09-24T21:42:07.034Z,3.90
2022-09-24T21:44:33.977Z,1.90
2022-09-24T21:47:01.003Z,2.80
2022-09-24T21:49:27.815Z,4.40
2022-09-24T21:51:55.625Z,3.90
2022-09-24T21:54:22.009Z,3.50
2022-09-24T21:56:48.438Z,2.40
2022-09-24T21:59:35.092Z,2.13
2022-09-24T22:02:02.378Z,3.70
2022-09-24T22:04:29.491Z,4.80
2022-09-24T22:06:55.960Z,2.10
2022-09-24T22:09:22.378Z,3.73
2022-09-24T22:11:48.792Z,3.83
2022-09-24T22:14:15.140Z,2.33
2022-09-24T22:16:41.608Z,6.07
2022-09-24T22:19:09.203Z,5.67
2022-09-24T22:21:36.019Z,4.03
2022-09-24T22:24:02.440Z,4.60
2022-09-24T22:26:31.788Z,1.33
2022-09-24T22:28:59.268Z,7.83
2022-09-24T22:31:26.532Z,3.30
2022-09-24T22:34:11.996Z,6.20
2022-09-24T22:36:38.688Z,2.93
2022-09-24T22:39:06.028Z,3.03
2022-09-24T22:41:36.028Z,2.27
2022-09-24T22:44:02.883Z,3.07
2022-09-24T22:46:29.730Z,3.97
2022-09-24T22:48:56.865Z,2.53
2022-09-24T22:51:30.065Z,1.03
2022-09-24T22:53:56.980Z,1.53
2022-09-24T22:56:25.277Z,2.07
2022-09-24T22:58:59.867Z,3.50
2022-09-24T23:01:32.125Z,2.23
2022-09-24T23:03:59.383Z,4.53
2022-09-24T23:06:26.222Z,3.67
2022-09-24T23:08:54.635Z,5.40
2022-09-24T23:11:27.052Z,2.60
2022-09-24T23:13:58.817Z,2.87
2022-09-24T23:16:28.422Z,2.27
2022-09-24T23:18:57.146Z,4.60
2022-09-24T23:21:26.656Z,2.20
2022-09-24T23:23:55.193Z,3.03
2022-09-24T23:26:25.005Z,3.53
2022-09-24T23:28:53.088Z,4.10
2022-09-24T23:31:22.149Z,3.40
2022-09-24T23:33:49.569Z,1.40
2022-09-24T23:36:16.993Z,1.50
2022-09-24T23:38:43.941Z,2.13
2022-09-24T23:41:11.457Z,3.87
2022-09-24T23:43:37.954Z,1.80
2022-09-24T23:46:05.221Z,1.37
2022-09-24T23:48:31.779Z,1.27
2022-09-24T23:50:58.531Z,2.50
2022-09-24T23:53:25.837Z,4.47
2022-09-24T23:55:54.038Z,2.03
2022-09-24T23:58:22.609Z,0.97
